Milan, Italy

8:12 PM CEST on September 17, 2014 (GMT +0200)
ILOMBARD74 | Change Station
CLOSE
Current Station
Personal Weather Station
Location: Gallarate, LOMBARDIA
Elevation: 768 ft
Nearby Weather Stations

Elev 768 ft 45.65 °N, 8.78 °E | Updated 7 minutes ago

Partly Cloudy
Partly Cloudy
68.7 °F
Feels Like 68.7 °F
N
0.0
Wind Variable Wind from North
Gusts 0.0 mph

Today
High -- | Low -- °F
--% Chance of Precip.
Yesterday
High -- | Low -- °F
Precip. -- in
7:05 AM 7:32 PM
Waning Crescent, 34% visible
Pressure 29.98 in
Visibility 5.0 miles
Clouds Few 6000 ft
Dew Point 62 °F
Humidity 79%
Rainfall 0.00 in
Snow Depth Not available.
UV 0 out of 12
Pollen Not available.
Air Quality Not available.
Flu Activity Not available.
METAR LIMN 171755Z 36003KT 8000 FEW060 20/17 Q1015 RMK BKN BKN100 VIS MIN 8000 BLU

More Conditions Fewer Conditions

Pressure 29.98 in
Visibility 5.0 miles
Clouds Few 6000 ft
Dew Point 62 °F
Humidity 79%
Rainfall 0.00 in
Snow Depth Not available.
UV 0 out of 12
Pollen Not available.
Air Quality Not available.
Flu Activity Not available.
METAR LIMN 171755Z 36003KT 8000 FEW060 20/17 Q1015 RMK BKN BKN100 VIS MIN 8000 BLU

More Conditions Fewer Conditions

10-Day Weather Forecast

Almanac

Astronomy

Sep. 17, 2014 Rise Set
Actual Time 7:05 AM CEST 7:32 PM CEST
Civil Twilight 6:35 AM CEST 8:02 PM CEST
Nautical Twilight 6:00 AM CEST 8:37 PM CEST
Astronomical Twilight 5:24 AM CEST 9:13 PM CEST
Moon 12:38 AM CEST 3:42 PM CEST
Length of Visible Light 13h 26m
Length of Day
12h 27m
Tomorrow will be 3m 10s shorter.
Waning Crescent, 34% of the Moon is Illuminated
Today
Waning Crescent
Sep 24
New
Oct 1
First Quarter
Oct 8
Full
Oct 15
Last Quarter

Today's Extremes

Country Highs Country Lows

Community

WunderPhotos

Upload Photos

1,754,122 photos uploaded!

WunderBlogs® & News

Nearby

Snow Depth

Not available.

Earthquake Activity

City Distance Mag. Time & Date
No recent earthquake activity has been reported nearby.
Minimum magnitude displayed is 2.5.

Coastal Water Temperatures

Place Temperature
No Stations Reporting

Nearby Weather Stations